createdAt,value
2022-08-21T00:02:02.142Z,64.42
2022-08-21T00:04:29.385Z,64.38
2022-08-21T00:06:56.794Z,64.40
2022-08-21T00:09:23.333Z,64.35
2022-08-21T00:11:50.156Z,64.67
2022-08-21T00:14:17.522Z,64.80
2022-08-21T00:16:44.242Z,64.94
2022-08-21T00:19:10.825Z,64.93
2022-08-21T00:21:37.365Z,65.26
2022-08-21T00:24:04.391Z,65.28
2022-08-21T00:26:30.790Z,66.03
2022-08-21T00:29:04.273Z,66.64
2022-08-21T00:31:30.879Z,66.56
2022-08-21T00:34:00.819Z,66.79
2022-08-21T00:36:27.924Z,66.40
2022-08-21T00:38:56.729Z,66.20
2022-08-21T00:41:38.466Z,66.30
2022-08-21T00:44:09.559Z,66.20
2022-08-21T00:46:36.742Z,66.43
2022-08-21T00:49:05.080Z,66.31
2022-08-21T00:51:51.956Z,66.69
2022-08-21T00:54:21.379Z,67.00
2022-08-21T00:56:55.202Z,67.53
2022-08-21T00:59:22.632Z,67.43
2022-08-21T01:01:50.524Z,67.62
2022-08-21T01:04:18.092Z,67.80
2022-08-21T01:06:44.776Z,67.90
2022-08-21T01:09:12.427Z,68.27
2022-08-21T01:11:38.987Z,68.29
2022-08-21T01:14:05.461Z,68.16
2022-08-21T01:16:33.791Z,68.11
2022-08-21T01:19:00.174Z,68.40
2022-08-21T01:21:28.533Z,68.68
2022-08-21T01:23:56.553Z,68.90
2022-08-21T01:26:34.092Z,68.66
2022-08-21T01:29:10.986Z,68.62
2022-08-21T01:31:38.143Z,68.65
2022-08-21T01:34:05.539Z,69.03
2022-08-21T01:36:33.478Z,69.58
2022-08-21T01:39:02.590Z,69.80
2022-08-21T01:41:29.043Z,69.87
2022-08-21T01:43:55.518Z,69.82
2022-08-21T01:46:21.996Z,69.87
2022-08-21T01:48:50.617Z,70.16
2022-08-21T01:51:19.982Z,70.53
2022-08-21T01:53:46.570Z,70.74
2022-08-21T01:56:15.194Z,70.80
2022-08-21T01:58:43.449Z,70.98
2022-08-21T02:01:10.998Z,70.84
2022-08-21T02:03:38.431Z,71.01
2022-08-21T02:06:06.505Z,70.85
2022-08-21T02:08:34.978Z,71.32
2022-08-21T02:11:02.069Z,71.44
2022-08-21T02:13:28.479Z,71.56
2022-08-21T02:15:56.027Z,71.60
2022-08-21T02:18:25.223Z,71.97
2022-08-21T02:20:54.152Z,71.96
2022-08-21T02:23:27.019Z,72.17
2022-08-21T02:26:00.965Z,72.32
2022-08-21T02:28:28.405Z,72.44
2022-08-21T02:30:56.997Z,72.63
2022-08-21T02:33:24.593Z,72.55
2022-08-21T02:35:52.777Z,72.93
2022-08-21T02:38:23.076Z,72.82
2022-08-21T02:40:52.010Z,72.96
2022-08-21T02:43:23.603Z,73.04
2022-08-21T02:45:51.413Z,73.22
2022-08-21T02:48:21.885Z,73.49
2022-08-21T02:50:55.040Z,73.34
2022-08-21T02:53:22.051Z,73.54
2022-08-21T02:55:50.768Z,73.55
2022-08-21T02:58:21.444Z,73.78
2022-08-21T03:00:48.081Z,73.74
2022-08-21T03:03:15.475Z,73.52
2022-08-21T03:05:43.541Z,74.08
2022-08-21T03:08:11.886Z,74.20
2022-08-21T03:11:10.743Z,74.50
2022-08-21T03:13:37.383Z,74.59
2022-08-21T03:16:05.267Z,74.77
2022-08-21T03:18:36.636Z,74.97
2022-08-21T03:21:04.949Z,75.04
2022-08-21T03:23:32.898Z,74.83
2022-08-21T03:25:59.746Z,74.99
2022-08-21T03:28:26.943Z,75.17
2022-08-21T03:33:34.355Z,75.73
2022-08-21T03:36:06.725Z,75.88
2022-08-21T03:38:34.503Z,76.26
2022-08-21T03:41:01.963Z,76.56
2022-08-21T03:43:31.001Z,76.49
2022-08-21T03:45:59.273Z,76.49
2022-08-21T03:48:25.685Z,76.55
2022-08-21T03:50:53.828Z,76.39
2022-08-21T03:53:21.535Z,76.31
2022-08-21T03:55:50.654Z,76.24
2022-08-21T03:58:19.407Z,76.56
2022-08-21T04:00:47.819Z,76.60
2022-08-21T04:03:14.211Z,76.76
2022-08-21T04:05:42.090Z,76.62
2022-08-21T04:08:08.641Z,76.44
2022-08-21T04:10:36.902Z,76.60
2022-08-21T04:13:04.510Z,76.51
2022-08-21T04:15:31.225Z,76.71
2022-08-21T04:17:57.700Z,76.54
2022-08-21T04:20:24.573Z,76.81
2022-08-21T04:22:51.930Z,76.73
2022-08-21T04:25:21.238Z,76.46
2022-08-21T04:27:49.959Z,76.59
2022-08-21T04:30:17.524Z,76.69
2022-08-21T04:32:46.273Z,76.64
2022-08-21T04:35:13.824Z,76.82
2022-08-21T04:37:42.051Z,77.05
2022-08-21T04:40:11.011Z,77.05
2022-08-21T04:42:47.666Z,77.10
2022-08-21T04:45:30.023Z,76.89
2022-08-21T04:48:00.561Z,77.17
2022-08-21T04:50:40.788Z,77.22
2022-08-21T04:53:09.925Z,77.53
2022-08-21T04:55:40.771Z,77.55
2022-08-21T04:58:13.186Z,77.39
2022-08-21T05:00:40.351Z,77.88
2022-08-21T05:03:09.652Z,77.58
2022-08-21T05:05:36.790Z,77.61
2022-08-21T05:08:04.494Z,77.81
2022-08-21T05:10:34.106Z,77.58
2022-08-21T05:13:11.147Z,78.13
2022-08-21T05:15:38.280Z,78.24
2022-08-21T05:18:05.419Z,78.30
2022-08-21T05:20:38.607Z,78.50
2022-08-21T05:23:10.442Z,78.76
2022-08-21T05:25:38.994Z,78.74
2022-08-21T05:28:07.299Z,78.02
2022-08-21T05:30:35.900Z,78.16
2022-08-21T05:33:04.459Z,78.46
2022-08-21T05:35:33.174Z,78.52
2022-08-21T05:38:00.865Z,78.68
2022-08-21T05:40:27.707Z,78.68
2022-08-21T05:42:55.830Z,78.06
2022-08-21T05:45:43.206Z,77.35
2022-08-21T05:48:25.383Z,75.37
2022-08-21T05:50:53.188Z,73.55
2022-08-21T05:53:21.995Z,71.63
2022-08-21T05:55:49.062Z,69.79
2022-08-21T05:58:18.181Z,68.70
2022-08-21T06:00:48.563Z,66.47
2022-08-21T06:03:22.161Z,65.10
2022-08-21T06:05:48.772Z,63.04
2022-08-21T06:08:20.121Z,61.11
2022-08-21T06:10:48.032Z,60.11
2022-08-21T06:13:16.092Z,58.84
2022-08-21T06:15:43.263Z,57.66
2022-08-21T06:18:09.953Z,56.62
2022-08-21T06:20:36.678Z,55.70
2022-08-21T06:23:03.870Z,54.37
2022-08-21T06:25:30.304Z,54.13
2022-08-21T06:28:22.926Z,52.88
2022-08-21T06:30:49.439Z,51.99
2022-08-21T06:33:15.989Z,51.86
2022-08-21T06:35:44.856Z,51.50
2022-08-21T06:38:12.273Z,51.25
2022-08-21T06:40:43.798Z,50.01
2022-08-21T06:43:16.505Z,50.16
2022-08-21T06:45:43.807Z,49.65
2022-08-21T06:48:11.419Z,49.57
2022-08-21T06:50:40.060Z,48.56
2022-08-21T06:53:12.080Z,48.02
2022-08-21T06:55:40.549Z,47.65
2022-08-21T06:58:19.316Z,47.04
2022-08-21T07:00:48.678Z,46.77
2022-08-21T07:03:20.253Z,46.57
2022-08-21T07:06:12.632Z,46.16
2022-08-21T07:08:40.251Z,45.88
2022-08-21T07:11:20.769Z,45.50
2022-08-21T07:13:47.269Z,44.62
2022-08-21T07:16:13.727Z,44.16
2022-08-21T07:18:40.834Z,44.09
2022-08-21T07:21:21.605Z,43.80
2022-08-21T07:23:51.925Z,43.46
2022-08-21T07:26:21.852Z,43.30
2022-08-21T07:28:52.417Z,42.58
2022-08-21T07:31:20.958Z,42.59
2022-08-21T07:33:47.673Z,42.43
2022-08-21T07:36:14.317Z,41.96
2022-08-21T07:38:41.164Z,42.11
2022-08-21T07:41:15.548Z,41.86
2022-08-21T07:43:46.029Z,41.42
2022-08-21T07:46:13.959Z,40.95
2022-08-21T07:48:41.824Z,41.08
2022-08-21T07:51:12.253Z,40.98
2022-08-21T07:53:39.552Z,40.97
2022-08-21T07:56:07.578Z,40.78
2022-08-21T07:58:34.050Z,40.76
2022-08-21T08:01:01.194Z,40.51
2022-08-21T08:03:28.967Z,40.60
2022-08-21T08:05:56.095Z,40.38
2022-08-21T08:08:22.484Z,40.23
2022-08-21T08:10:50.606Z,40.61
2022-08-21T08:13:17.688Z,40.17
2022-08-21T08:15:44.086Z,40.07
2022-08-21T08:18:10.595Z,39.95
2022-08-21T08:20:37.085Z,40.18
2022-08-21T08:23:03.599Z,40.17
2022-08-21T08:25:36.608Z,40.47
2022-08-21T08:28:16.664Z,39.98
2022-08-21T08:30:46.880Z,40.53
2022-08-21T08:33:14.542Z,40.44
2022-08-21T08:35:46.065Z,40.47
2022-08-21T08:38:13.011Z,40.46
2022-08-21T08:41:03.980Z,41.36
2022-08-21T08:43:33.101Z,41.95
2022-08-21T08:46:03.664Z,42.80
2022-08-21T08:48:58.265Z,43.28
2022-08-21T08:51:47.605Z,43.69
2022-08-21T08:54:40.404Z,43.34
2022-08-21T08:57:11.646Z,42.89
2022-08-21T08:59:43.941Z,43.10
2022-08-21T09:02:13.157Z,43.63
2022-08-21T09:04:43.455Z,43.85
2022-08-21T09:07:17.393Z,43.71
2022-08-21T09:10:06.520Z,43.97
2022-08-21T09:12:45.883Z,44.55
2022-08-21T09:15:21.168Z,44.50
2022-08-21T09:18:07.689Z,44.56
2022-08-21T09:21:02.801Z,43.70
2022-08-21T09:23:56.822Z,42.76
2022-08-21T09:26:33.766Z,43.37
2022-08-21T09:29:01.700Z,43.09
2022-08-21T09:31:35.538Z,43.43
2022-08-21T09:34:10.024Z,43.38
2022-08-21T09:36:47.829Z,42.05
2022-08-21T09:39:39.873Z,41.86
2022-08-21T09:42:10.470Z,41.94
2022-08-21T09:44:44.294Z,42.39
2022-08-21T09:47:15.193Z,42.20
2022-08-21T09:49:43.488Z,42.44
2022-08-21T09:52:23.559Z,43.27
2022-08-21T09:54:54.192Z,43.44
2022-08-21T09:57:41.724Z,43.08
2022-08-21T10:00:25.549Z,42.42
2022-08-21T10:02:52.064Z,42.53
2022-08-21T10:05:26.249Z,41.92
2022-08-21T10:07:52.848Z,41.64
2022-08-21T10:10:39.643Z,40.93
2022-08-21T10:13:22.300Z,40.10
2022-08-21T10:16:20.873Z,39.72
2022-08-21T10:18:55.901Z,38.18
2022-08-21T10:21:39.651Z,38.27
2022-08-21T10:24:31.049Z,39.05
2022-08-21T10:27:26.105Z,38.09
2022-08-21T10:30:06.522Z,38.23
2022-08-21T10:32:59.730Z,38.31
2022-08-21T10:35:57.597Z,38.95
2022-08-21T10:38:53.020Z,39.65
2022-08-21T10:42:07.457Z,41.22
2022-08-21T10:44:53.711Z,40.97
2022-08-21T10:47:52.951Z,41.04
2022-08-21T10:50:45.097Z,40.09
2022-08-21T10:56:27.580Z,40.35
2022-08-21T10:58:57.577Z,41.75
2022-08-21T11:01:31.252Z,42.30
2022-08-21T11:04:49.148Z,42.83
2022-08-21T11:07:36.037Z,42.71
2022-08-21T11:10:14.188Z,41.93
2022-08-21T11:12:57.084Z,41.74
2022-08-21T11:15:25.142Z,40.50
2022-08-21T11:18:33.143Z,40.63
2022-08-21T11:21:49.595Z,40.18
2022-08-21T11:24:55.499Z,38.62
2022-08-21T11:27:37.461Z,37.91
2022-08-21T11:30:13.953Z,37.33
2022-08-21T11:32:54.580Z,37.45
2022-08-21T11:35:42.621Z,38.24
2022-08-21T11:38:34.159Z,37.60
2022-08-21T11:41:37.817Z,37.14
2022-08-21T11:44:11.364Z,37.50
2022-08-21T11:47:09.912Z,37.36
2022-08-21T11:49:57.728Z,37.50
2022-08-21T11:52:33.665Z,37.63
2022-08-21T11:55:23.747Z,37.65
2022-08-21T11:58:27.569Z,37.59
2022-08-21T12:01:03.339Z,37.86
2022-08-21T12:03:52.015Z,37.79
2022-08-21T12:06:31.236Z,37.34
2022-08-21T12:09:01.001Z,37.09
2022-08-21T12:11:30.490Z,37.09
2022-08-21T12:14:06.501Z,37.50
2022-08-21T12:16:41.384Z,37.52
2022-08-21T12:19:15.413Z,37.63
2022-08-21T12:22:16.666Z,36.92
2022-08-21T12:24:50.141Z,36.37
2022-08-21T12:27:41.531Z,35.62
2022-08-21T12:30:20.349Z,35.72
2022-08-21T12:33:04.807Z,35.85
2022-08-21T12:38:29.994Z,35.66
2022-08-21T12:41:11.756Z,35.03
2022-08-21T12:43:48.353Z,34.92
2022-08-21T12:46:28.817Z,34.60
2022-08-21T12:48:59.779Z,34.95
2022-08-21T12:51:44.836Z,35.20
2022-08-21T12:54:11.249Z,35.16
2022-08-21T12:56:40.089Z,34.30
2022-08-21T12:59:12.195Z,34.61
2022-08-21T13:01:52.566Z,35.07
2022-08-21T13:04:42.490Z,34.94
2022-08-21T13:07:13.145Z,35.25
2022-08-21T13:10:02.475Z,35.41
2022-08-21T13:12:32.657Z,35.59
2022-08-21T13:15:02.482Z,35.66
2022-08-21T13:17:33.242Z,35.27
2022-08-21T13:20:06.273Z,34.10
2022-08-21T13:22:35.599Z,34.63
2022-08-21T13:25:06.814Z,34.65
2022-08-21T13:27:35.077Z,34.46
2022-08-21T13:30:08.739Z,34.87
2022-08-21T13:32:39.702Z,35.50
2022-08-21T13:35:17.927Z,35.02
2022-08-21T13:37:47.465Z,34.39
2022-08-21T13:40:27.639Z,34.83
2022-08-21T13:42:55.989Z,34.73
2022-08-21T13:45:32.474Z,34.46
2022-08-21T13:48:06.100Z,34.69
2022-08-21T13:50:35.995Z,34.78
2022-08-21T13:53:24.233Z,34.72
2022-08-21T13:55:50.838Z,35.46
2022-08-21T13:58:26.917Z,35.77
2022-08-21T14:00:55.894Z,36.13
2022-08-21T14:03:43.440Z,36.06
2022-08-21T14:06:23.330Z,35.83
2022-08-21T14:08:58.161Z,36.11
2022-08-21T14:11:26.714Z,36.55
2022-08-21T14:14:01.861Z,36.69
2022-08-21T14:16:41.244Z,36.80
2022-08-21T14:19:21.062Z,37.23
2022-08-21T14:21:47.625Z,36.95
2022-08-21T14:24:40.289Z,36.81
2022-08-21T14:27:08.518Z,37.07
2022-08-21T14:29:41.953Z,36.42
2022-08-21T14:32:25.365Z,36.03
2022-08-21T14:34:52.533Z,36.95
2022-08-21T14:37:20.928Z,37.16
2022-08-21T14:39:47.354Z,37.12
2022-08-21T14:42:14.017Z,36.89
2022-08-21T14:44:42.025Z,37.42
2022-08-21T14:47:13.032Z,37.19
2022-08-21T14:49:39.764Z,36.81
2022-08-21T14:52:06.389Z,36.79
2022-08-21T14:54:33.878Z,36.99
2022-08-21T14:57:05.796Z,37.37
2022-08-21T14:59:35.751Z,38.14
2022-08-21T15:02:04.970Z,37.81
2022-08-21T15:04:31.631Z,38.34
2022-08-21T15:06:58.093Z,37.88
2022-08-21T15:09:24.941Z,38.12
2022-08-21T15:11:59.460Z,38.05
2022-08-21T15:14:29.341Z,37.78
2022-08-21T15:16:55.876Z,37.98
2022-08-21T15:19:23.495Z,38.34
2022-08-21T15:21:50.251Z,39.17
2022-08-21T15:24:17.991Z,39.21
2022-08-21T15:26:45.820Z,39.46
2022-08-21T15:29:12.303Z,39.62
2022-08-21T15:31:52.211Z,39.71
2022-08-21T15:34:18.761Z,39.57
2022-08-21T15:36:45.241Z,39.71
2022-08-21T15:39:11.710Z,39.63
2022-08-21T15:41:38.225Z,39.96
2022-08-21T15:44:04.905Z,39.90
2022-08-21T15:46:32.203Z,39.59
2022-08-21T15:48:59.975Z,39.81
2022-08-21T15:51:26.653Z,40.04
2022-08-21T15:53:53.240Z,40.38
2022-08-21T15:56:27.074Z,40.62
2022-08-21T15:59:01.733Z,41.43
2022-08-21T16:01:29.692Z,41.27
2022-08-21T16:04:11.555Z,41.66
2022-08-21T16:06:54.170Z,41.61
2022-08-21T16:09:22.663Z,42.17
2022-08-21T16:11:49.568Z,41.99
2022-08-21T16:14:17.440Z,41.72
2022-08-21T16:16:44.433Z,41.77
2022-08-21T16:19:12.160Z,41.66
2022-08-21T16:21:40.962Z,40.98
2022-08-21T16:24:07.552Z,41.39
2022-08-21T16:26:34.187Z,42.09
2022-08-21T16:29:02.717Z,42.78
2022-08-21T16:31:31.563Z,42.90
2022-08-21T16:33:58.977Z,42.42
2022-08-21T16:36:28.782Z,42.40
2022-08-21T16:38:59.491Z,42.02
2022-08-21T16:41:31.047Z,42.28
2022-08-21T16:43:57.538Z,41.89
2022-08-21T16:46:26.658Z,41.79
2022-08-21T16:48:53.105Z,41.95
2022-08-21T16:51:19.484Z,41.39
2022-08-21T16:53:47.702Z,41.27
2022-08-21T16:56:15.924Z,41.28
2022-08-21T16:58:47.464Z,40.26
2022-08-21T17:01:18.294Z,39.98
2022-08-21T17:03:48.473Z,40.22
2022-08-21T17:06:15.894Z,40.23
2022-08-21T17:08:42.409Z,40.40
2022-08-21T17:11:17.078Z,40.88
2022-08-21T17:14:08.031Z,41.41
2022-08-21T17:16:35.806Z,41.41
2022-08-21T17:19:02.198Z,41.69
2022-08-21T17:21:28.616Z,42.12
2022-08-21T17:23:55.621Z,42.38
2022-08-21T17:26:22.960Z,42.50
2022-08-21T17:28:54.246Z,42.46
2022-08-21T17:31:21.191Z,42.52
2022-08-21T17:33:52.698Z,42.56
2022-08-21T17:36:23.432Z,43.10
2022-08-21T17:38:50.180Z,43.65
2022-08-21T17:41:17.605Z,43.46
2022-08-21T17:43:44.345Z,43.63
2022-08-21T17:46:14.999Z,43.54
2022-08-21T17:48:41.381Z,43.22
2022-08-21T17:51:14.520Z,43.50
2022-08-21T17:53:41.116Z,43.30
2022-08-21T17:56:07.892Z,43.39
2022-08-21T17:58:34.821Z,43.77
2022-08-21T18:01:05.754Z,44.30
2022-08-21T18:03:37.141Z,44.66
2022-08-21T18:06:05.668Z,44.79
2022-08-21T18:08:33.056Z,44.89
2022-08-21T18:11:00.811Z,45.13
2022-08-21T18:13:33.783Z,45.01
2022-08-21T18:16:01.505Z,44.82
2022-08-21T18:18:37.783Z,44.92
2022-08-21T18:21:04.440Z,44.53
2022-08-21T18:23:43.423Z,44.66
2022-08-21T18:26:12.914Z,44.79
2022-08-21T18:28:42.622Z,45.26
2022-08-21T18:31:13.203Z,45.40
2022-08-21T18:33:56.881Z,45.48
2022-08-21T18:36:26.419Z,45.49
2022-08-21T18:39:04.380Z,45.73
2022-08-21T18:41:45.009Z,45.62
2022-08-21T18:44:15.856Z,46.24
2022-08-21T18:46:45.393Z,46.13
2022-08-21T18:49:12.180Z,46.29
2022-08-21T18:51:41.658Z,46.29
2022-08-21T18:54:12.992Z,46.67
2022-08-21T18:56:41.570Z,46.58
2022-08-21T18:59:13.860Z,46.96
2022-08-21T19:01:43.189Z,46.64
2022-08-21T19:04:43.727Z,46.63
2022-08-21T19:07:21.212Z,46.74
2022-08-21T19:10:07.665Z,46.65
2022-08-21T19:12:36.221Z,47.15
2022-08-21T19:18:32.947Z,47.51
2022-08-21T19:20:59.488Z,47.57
2022-08-21T19:23:29.168Z,47.57
2022-08-21T19:28:49.044Z,47.88
2022-08-21T19:34:26.117Z,48.17
2022-08-21T19:36:52.923Z,48.17
2022-08-21T19:39:27.567Z,48.59
2022-08-21T19:42:10.192Z,48.61
2022-08-21T19:44:40.299Z,48.55
2022-08-21T19:47:29.537Z,48.80
2022-08-21T19:50:17.490Z,49.00
2022-08-21T19:52:51.223Z,48.97
2022-08-21T19:55:29.599Z,49.25
2022-08-21T19:57:59.647Z,49.01
2022-08-21T20:00:34.920Z,49.55
2022-08-21T20:03:01.661Z,49.34
2022-08-21T20:05:39.556Z,49.77
2022-08-21T20:08:11.862Z,49.64
2022-08-21T20:10:51.966Z,49.91
2022-08-21T20:13:35.256Z,50.28
2022-08-21T20:16:35.751Z,50.50
2022-08-21T20:19:05.234Z,50.23
2022-08-21T20:24:39.751Z,50.87
2022-08-21T20:27:15.495Z,50.79
2022-08-21T20:29:42.872Z,51.04
2022-08-21T20:34:56.214Z,51.20
2022-08-21T20:37:36.770Z,51.44
2022-08-21T20:40:10.280Z,51.96
2022-08-21T20:42:44.905Z,51.85
2022-08-21T20:45:11.958Z,51.74
2022-08-21T20:47:39.330Z,52.02
2022-08-21T20:50:13.727Z,52.23
2022-08-21T20:52:41.530Z,52.00
2022-08-21T20:55:14.055Z,52.09
2022-08-21T20:57:53.172Z,52.60
2022-08-21T21:00:23.098Z,52.75
2022-08-21T21:03:09.855Z,52.74
2022-08-21T21:05:59.757Z,53.01
2022-08-21T21:08:34.517Z,53.06
2022-08-21T21:11:07.281Z,53.25
2022-08-21T21:13:44.655Z,53.34
2022-08-21T21:16:51.157Z,53.78
2022-08-21T21:19:42.731Z,53.99
2022-08-21T21:22:28.874Z,53.98
2022-08-21T21:25:14.239Z,53.81
2022-08-21T21:27:50.592Z,53.94
2022-08-21T21:30:21.901Z,54.52
2022-08-21T21:32:51.675Z,54.61
2022-08-21T21:35:32.494Z,54.82
2022-08-21T21:38:11.701Z,55.27
2022-08-21T21:40:49.563Z,55.50
2022-08-21T21:43:51.643Z,55.91
2022-08-21T21:46:58.161Z,56.18
2022-08-21T21:49:41.746Z,56.15
2022-08-21T21:52:23.299Z,56.12
2022-08-21T21:55:00.456Z,56.27
2022-08-21T21:57:42.231Z,56.68
2022-08-21T22:00:14.110Z,56.44
2022-08-21T22:02:57.764Z,56.99
2022-08-21T22:06:01.213Z,56.98
2022-08-21T22:08:50.984Z,57.14
2022-08-21T22:11:46.605Z,57.20
2022-08-21T22:14:16.388Z,57.44
2022-08-21T22:16:47.847Z,57.42
2022-08-21T22:19:30.613Z,57.50
2022-08-21T22:22:09.102Z,57.25
2022-08-21T22:24:41.529Z,57.21
2022-08-21T22:27:17.023Z,56.90
2022-08-21T22:29:48.729Z,57.31
2022-08-21T22:32:42.700Z,57.46
2022-08-21T22:35:27.722Z,57.55
2022-08-21T22:37:57.550Z,57.64
2022-08-21T22:40:35.189Z,57.64
2022-08-21T22:43:07.232Z,57.85
2022-08-21T22:46:04.020Z,57.82
2022-08-21T22:48:36.896Z,57.79
2022-08-21T22:51:07.603Z,57.85
2022-08-21T22:53:37.996Z,58.11
2022-08-21T22:56:15.517Z,58.45
2022-08-21T22:59:01.911Z,58.49
2022-08-21T23:01:33.454Z,58.73
2022-08-21T23:04:12.134Z,58.90
2022-08-21T23:06:44.660Z,59.43
2022-08-21T23:09:37.446Z,59.89
2022-08-21T23:12:23.701Z,59.74
2022-08-21T23:15:02.385Z,60.33
2022-08-21T23:18:03.025Z,60.67
2022-08-21T23:20:40.366Z,60.59
2022-08-21T23:23:17.937Z,60.71
2022-08-21T23:25:50.373Z,60.85
2022-08-21T23:28:35.538Z,60.90
2022-08-21T23:31:16.527Z,60.88
2022-08-21T23:34:05.979Z,61.07
2022-08-21T23:37:10.328Z,61.13
2022-08-21T23:39:54.855Z,61.48
2022-08-21T23:42:53.290Z,61.62
2022-08-21T23:45:38.487Z,61.67
2022-08-21T23:48:44.894Z,61.90
2022-08-21T23:51:14.700Z,62.07
2022-08-21T23:53:53.120Z,62.17
2022-08-21T23:56:19.402Z,62.57
2022-08-21T23:59:10.260Z,62.93
